Time;durP1;ratioP1;P1;durP2;ratioP2;P2;SDS_P1;SDS_P2;PMS_P1;PMS_P2;Temp;Humidity;BMP_temperature;BMP_pressure;BME280_temperature;BME280_humidity;BME280_pressure;Samples;Min_cycle;Max_cycle;Signal;HPM_P1;HPM_P2
2022/04/16 00:07:04;;;;;;;6.95;2.40;;;10.30;99.90;;;;;;20702425;28;20072;-81
2022/04/16 00:17:06;;;;;;;6.13;2.63;;;10.30;99.90;;;;;;20737775;28;20050;-81
2022/04/16 00:27:10;;;;;;;5.95;2.45;;;10.20;99.90;;;;;;20676788;28;20399;-80
2022/04/16 00:37:11;;;;;;;5.75;2.90;;;10.10;99.90;;;;;;20683747;28;20405;-80
2022/04/16 00:47:12;;;;;;;6.80;2.67;;;9.80;99.90;;;;;;20676776;28;20050;-81
2022/04/16 00:57:15;;;;;;;7.25;2.78;;;9.80;99.90;;;;;;20688214;28;20042;-81
2022/04/16 01:07:40;;;;;;;6.30;2.22;;;9.70;99.90;;;;;;20704369;28;20095;-84
2022/04/16 01:17:47;;;;;;;6.22;2.72;;;9.70;99.90;;;;;;20734706;28;20042;-85
2022/04/16 01:27:48;;;;;;;4.28;2.33;;;9.60;99.90;;;;;;20713512;28;20117;-85
2022/04/16 01:37:49;;;;;;;5.00;2.28;;;9.50;99.90;;;;;;20714839;28;20137;-85
2022/04/16 01:47:50;;;;;;;3.97;2.00;;;9.50;99.90;;;;;;20706129;28;20153;-84
2022/04/16 01:57:52;;;;;;;8.85;2.50;;;9.40;99.90;;;;;;20726270;28;20128;-84
2022/04/16 02:07:54;;;;;;;8.07;3.25;;;9.40;99.90;;;;;;20705549;28;20126;-83
2022/04/16 02:17:56;;;;;;;6.70;2.65;;;9.40;99.90;;;;;;20732606;28;20065;-84
2022/04/16 02:27:57;;;;;;;8.13;3.30;;;9.20;99.90;;;;;;20705172;28;20109;-83
2022/04/16 02:37:58;;;;;;;4.82;2.35;;;9.10;99.90;;;;;;20754230;28;20077;-84
2022/04/16 02:58:32;;;;;;;8.35;3.30;;;8.90;99.90;;;;;;20706286;28;20270;-44
2022/04/16 03:08:34;;;;;;;5.25;2.95;;;8.70;99.90;;;;;;20707720;28;20125;-43
2022/04/16 03:18:35;;;;;;;12.85;3.47;;;8.60;99.90;;;;;;20697508;28;20528;-43
2022/04/16 03:28:38;;;;;;;8.50;3.95;;;8.60;99.90;;;;;;20711109;28;20045;-43
2022/04/16 03:38:39;;;;;;;7.85;2.95;;;8.40;99.90;;;;;;20694092;28;20052;-43
2022/04/16 03:48:40;;;;;;;6.68;2.55;;;8.30;99.90;;;;;;20693681;28;20576;-43
2022/04/16 03:59:59;;;;;;;7.65;3.67;;;8.30;99.90;;;;;;20683920;28;20506;-43
2022/04/16 04:09:17;;;;;;;8.55;4.03;;;8.20;99.90;;;;;;20702178;28;20449;-44
2022/04/16 04:19:18;;;;;;;5.65;2.58;;;8.10;99.90;;;;;;20679115;28;20057;-43
2022/04/16 04:29:19;;;;;;;7.30;2.67;;;7.90;99.90;;;;;;20701705;28;20046;-43
2022/04/16 04:39:20;;;;;;;8.02;3.58;;;7.90;99.90;;;;;;20690817;28;20041;-43
2022/04/16 04:49:21;;;;;;;8.00;3.53;;;7.90;99.90;;;;;;20703293;28;20050;-43
2022/04/16 04:59:22;;;;;;;11.43;4.32;;;7.90;99.90;;;;;;20670400;28;20054;-43
2022/04/16 05:09:24;;;;;;;10.35;4.60;;;7.80;99.90;;;;;;20688778;28;20140;-43
2022/04/16 05:19:25;;;;;;;9.40;3.55;;;7.70;99.90;;;;;;20689580;28;20385;-43
2022/04/16 05:29:32;;;;;;;9.18;4.00;;;7.80;99.90;;;;;;20710935;28;20049;-43
2022/04/16 05:39:33;;;;;;;9.50;4.47;;;7.80;99.90;;;;;;20703357;28;20049;-43
2022/04/16 05:49:34;;;;;;;8.20;3.92;;;7.90;99.90;;;;;;20717168;28;20049;-43
2022/04/16 05:59:35;;;;;;;8.60;3.70;;;8.20;99.90;;;;;;20695513;28;20046;-43
2022/04/16 06:09:37;;;;;;;9.48;3.50;;;8.20;99.90;;;;;;20683299;28;20042;-43
2022/04/16 06:19:37;;;;;;;12.10;4.70;;;8.40;99.90;;;;;;20700232;28;20041;-43
2022/04/16 06:29:39;;;;;;;8.70;3.60;;;8.70;99.90;;;;;;20714402;28;20132;-43
2022/04/16 06:39:41;;;;;;;10.45;4.75;;;8.90;99.90;;;;;;20659917;28;20069;-43
2022/04/16 06:49:42;;;;;;;11.48;4.93;;;9.10;99.90;;;;;;20706996;28;20057;-43
2022/04/16 06:59:43;;;;;;;10.73;4.65;;;9.30;99.90;;;;;;20701367;28;20061;-43
2022/04/16 07:09:44;;;;;;;9.88;4.47;;;9.70;99.90;;;;;;20693220;28;20389;-43
2022/04/16 07:19:45;;;;;;;12.63;4.55;;;9.90;99.90;;;;;;20685981;28;20369;-44
2022/04/16 07:29:46;;;;;;;10.65;4.55;;;10.40;99.90;;;;;;20662493;28;20049;-43
2022/04/16 07:39:48;;;;;;;9.15;4.95;;;10.70;99.90;;;;;;20655281;28;20050;-43
2022/04/16 07:49:50;;;;;;;9.75;4.25;;;10.90;99.90;;;;;;20596299;28;20513;-43
2022/04/16 07:59:54;;;;;;;9.48;3.75;;;10.90;99.90;;;;;;20679109;28;20049;-44
2022/04/16 08:09:55;;;;;;;9.63;3.90;;;10.90;99.90;;;;;;20653802;28;20038;-44
2022/04/16 08:20:06;;;;;;;7.85;3.80;;;11.00;99.90;;;;;;20819441;28;20658;-45
2022/04/16 08:30:09;;;;;;;9.35;3.80;;;11.40;99.90;;;;;;20807663;28;20071;-45
2022/04/16 08:40:15;;;;;;;8.07;3.72;;;11.80;99.90;;;;;;20818135;28;20382;-45
2022/04/16 08:50:16;;;;;;;8.45;3.20;;;12.00;99.90;;;;;;20788258;28;20052;-45
2022/04/16 09:00:17;;;;;;;9.05;3.13;;;12.60;99.90;;;;;;20783672;28;20057;-45
2022/04/16 09:10:19;;;;;;;6.47;2.97;;;12.90;99.90;;;;;;20782890;28;20407;-45
2022/04/16 09:20:20;;;;;;;7.55;3.00;;;13.10;99.90;;;;;;20789492;28;20037;-43
2022/04/16 09:30:31;;;;;;;7.82;3.28;;;13.40;99.90;;;;;;20734813;28;20133;-42
2022/04/16 09:40:34;;;;;;;7.03;2.40;;;13.80;99.90;;;;;;20691883;28;20041;-43
2022/04/16 09:50:37;;;;;;;3.83;1.92;;;14.10;99.90;;;;;;20708951;28;20584;-43
2022/04/16 10:00:38;;;;;;;5.50;2.13;;;14.60;99.90;;;;;;20729433;28;20033;-43
2022/04/16 10:10:46;;;;;;;4.93;1.90;;;15.10;99.90;;;;;;20747563;28;20049;-43
2022/04/16 10:20:54;;;;;;;3.53;1.80;;;15.20;99.90;;;;;;20743976;28;20382;-43
2022/04/16 10:30:56;;;;;;;4.10;2.20;;;15.10;99.90;;;;;;20747840;28;20323;-43
2022/04/16 10:40:58;;;;;;;2.70;1.08;;;15.80;99.90;;;;;;20735136;28;20110;-43
2022/04/16 10:51:00;;;;;;;2.38;1.02;;;16.20;99.90;;;;;;20736127;28;20042;-43
2022/04/16 11:01:07;;;;;;;2.40;1.10;;;16.60;99.90;;;;;;20723238;28;20037;-43
2022/04/16 11:11:11;;;;;;;;;;;17.10;99.90;;;;;;20749936;28;20049;-44
2022/04/16 11:21:24;;;;;;;1.63;0.70;;;17.00;99.90;;;;;;20757665;28;19913;-43
2022/04/16 11:41:56;;;;;;;2.00;0.90;;;17.00;99.70;;;;;;20775211;28;20068;-43
2022/04/16 11:51:58;;;;;;;3.50;1.10;;;17.60;99.10;;;;;;20782470;28;20060;-43
2022/04/16 12:02:09;;;;;;;2.70;1.00;;;17.70;98.50;;;;;;20752274;28;20041;-44
2022/04/16 12:12:15;;;;;;;2.55;1.02;;;18.00;99.40;;;;;;20752961;28;20034;-44
2022/04/16 12:22:16;;;;;;;1.90;1.10;;;18.10;98.30;;;;;;20764092;28;20037;-44
2022/04/16 12:32:26;;;;;;;2.67;1.05;;;18.50;98.20;;;;;;20767731;28;20037;-44
2022/04/16 12:42:27;;;;;;;2.83;1.02;;;18.70;95.50;;;;;;20749302;28;20397;-44
2022/04/16 12:52:28;;;;;;;4.65;1.48;;;18.60;95.10;;;;;;20756027;28;20040;-44
2022/04/16 13:02:29;;;;;;;2.47;1.15;;;18.60;94.70;;;;;;20765202;28;20034;-44
2022/04/16 13:12:31;;;;;;;3.05;1.23;;;18.80;96.10;;;;;;20764571;28;20518;-44
2022/04/16 13:22:33;;;;;;;1.75;1.00;;;19.30;95.90;;;;;;20768603;28;20126;-44
2022/04/16 13:32:35;;;;;;;1.80;0.80;;;19.20;93.30;;;;;;20754808;28;20121;-44
2022/04/16 13:42:37;;;;;;;4.63;1.20;;;19.60;92.90;;;;;;20770307;28;20218;-44
2022/04/16 13:52:38;;;;;;;2.03;0.73;;;19.90;92.20;;;;;;20769812;28;20120;-44
2022/04/16 14:02:43;;;;;;;1.95;1.10;;;20.10;91.80;;;;;;20734299;28;20036;-44
2022/04/16 14:12:45;;;;;;;1.73;0.63;;;19.70;91.20;;;;;;20769738;28;20045;-44
2022/04/16 14:22:46;;;;;;;1.90;0.50;;;19.40;92.10;;;;;;20755762;28;20425;-44
2022/04/16 14:32:49;;;;;;;1.83;0.68;;;19.10;91.20;;;;;;20748720;28;20029;-44
2022/04/16 14:42:51;;;;;;;1.15;0.43;;;18.80;91.20;;;;;;20761632;28;20032;-44
2022/04/16 14:52:52;;;;;;;1.08;0.60;;;18.50;89.40;;;;;;20764348;28;20056;-44
2022/04/16 15:02:53;;;;;;;1.08;0.50;;;18.30;89.10;;;;;;20730012;28;20069;-44
2022/04/16 15:12:54;;;;;;;1.48;0.40;;;18.30;84.50;;;;;;20779359;28;20469;-44
2022/04/16 15:22:55;;;;;;;2.78;0.55;;;18.10;83.70;;;;;;20759746;28;20475;-44
2022/04/16 15:32:56;;;;;;;1.00;0.40;;;18.00;79.00;;;;;;20779923;28;20041;-44
2022/04/16 15:43:00;;;;;;;1.58;0.60;;;18.00;74.70;;;;;;20753368;28;20038;-44
2022/04/16 15:53:01;;;;;;;0.82;0.38;;;18.10;73.40;;;;;;20765279;28;20060;-44
2022/04/16 16:03:02;;;;;;;0.90;0.50;;;18.00;75.10;;;;;;20750429;28;20436;-45
2022/04/16 16:13:03;;;;;;;1.52;0.55;;;17.90;73.30;;;;;;20735335;28;20049;-44
2022/04/16 16:23:04;;;;;;;1.65;0.52;;;17.50;72.60;;;;;;20761633;28;20650;-44
2022/04/16 16:33:06;;;;;;;3.70;0.70;;;17.30;73.00;;;;;;20761751;28;20286;-44
2022/04/16 16:43:08;;;;;;;0.85;0.40;;;17.00;74.20;;;;;;20791984;28;20430;-44
2022/04/16 16:53:12;;;;;;;2.03;1.00;;;16.80;76.50;;;;;;20787426;28;20036;-44
2022/04/16 17:13:35;;;;;;;1.77;0.50;;;16.50;76.30;;;;;;20776748;28;20053;-44
2022/04/16 17:23:40;;;;;;;0.90;0.38;;;16.40;75.30;;;;;;20776431;28;20449;-44
2022/04/16 17:33:42;;;;;;;1.05;0.40;;;16.20;75.90;;;;;;20784899;28;20041;-44
2022/04/16 17:43:43;;;;;;;2.38;0.40;;;16.10;75.40;;;;;;20792042;28;20033;-44
2022/04/16 17:53:44;;;;;;;2.78;0.55;;;15.80;76.30;;;;;;20791095;28;20044;-44
2022/04/16 18:03:45;;;;;;;3.08;0.70;;;15.70;75.80;;;;;;20788549;28;20045;-44
2022/04/16 18:13:46;;;;;;;1.27;0.60;;;15.50;77.10;;;;;;20780364;28;20041;-44
2022/04/16 18:23:48;;;;;;;1.25;0.60;;;15.30;78.40;;;;;;20774488;28;20077;-44
2022/04/16 18:33:50;;;;;;;1.33;0.50;;;15.00;77.90;;;;;;20763589;28;20045;-44
2022/04/16 18:43:51;;;;;;;1.90;0.60;;;14.70;78.90;;;;;;20778058;28;20033;-44
2022/04/16 18:53:52;;;;;;;1.83;1.15;;;14.40;80.00;;;;;;20786882;28;20286;-44
2022/04/16 19:14:13;;;;;;;0.98;0.47;;;13.90;80.50;;;;;;20779941;28;20052;-44
2022/04/16 19:24:16;;;;;;;2.25;1.10;;;13.70;86.80;;;;;;20754664;28;20044;-44
2022/04/16 19:34:17;;;;;;;7.43;3.33;;;13.40;87.00;;;;;;20761334;28;20033;-44
2022/04/16 19:44:18;;;;;;;4.35;2.60;;;13.10;87.80;;;;;;20765741;28;20049;-44
2022/04/16 19:54:19;;;;;;;4.93;2.20;;;13.00;84.50;;;;;;20766327;28;20053;-44
2022/04/16 20:04:20;;;;;;;5.93;1.30;;;12.70;89.50;;;;;;20770076;28;20038;-44
2022/04/16 20:14:21;;;;;;;11.70;5.78;;;12.50;90.50;;;;;;20781737;28;20065;-44
2022/04/16 20:24:28;;;;;;;20.38;9.55;;;12.30;91.10;;;;;;20758642;28;20036;-44
2022/04/16 20:34:30;;;;;;;7.70;3.13;;;12.30;87.90;;;;;;20762320;28;20064;-44
2022/04/16 20:54:53;;;;;;;20.95;9.32;;;11.90;91.70;;;;;;20757486;28;20034;-44
2022/04/16 21:04:54;;;;;;;41.25;14.55;;;11.80;91.40;;;;;;20767613;28;20033;-44
2022/04/16 21:14:56;;;;;;;17.80;4.80;;;11.70;92.60;;;;;;20766438;28;20052;-44
2022/04/16 21:24:57;;;;;;;11.45;3.75;;;11.30;93.20;;;;;;20764736;28;20462;-44
2022/04/16 21:34:58;;;;;;;36.92;13.75;;;11.30;93.70;;;;;;20765589;28;20052;-43
2022/04/16 21:45:00;;;;;;;51.08;19.40;;;11.20;92.20;;;;;;20787313;28;20029;-44
2022/04/16 21:55:01;;;;;;;22.60;8.57;;;11.10;91.60;;;;;;20778983;28;20037;-44
2022/04/16 22:05:02;;;;;;;24.00;6.85;;;10.90;91.10;;;;;;20748198;28;20084;-44
2022/04/16 22:15:03;;;;;;;14.85;5.20;;;10.70;91.20;;;;;;20779242;28;20049;-44
2022/04/16 22:25:06;;;;;;;5.90;2.63;;;10.70;91.20;;;;;;20773817;28;21318;-43
2022/04/16 22:35:14;;;;;;;4.63;2.60;;;10.60;91.90;;;;;;20767237;28;20045;-43
2022/04/16 22:45:15;;;;;;;3.40;1.30;;;10.40;91.90;;;;;;20766849;28;20030;-43
2022/04/16 22:55:16;;;;;;;3.22;1.05;;;10.30;91.90;;;;;;20772565;28;20030;-44
2022/04/16 23:05:17;;;;;;;2.22;0.80;;;10.30;92.80;;;;;;20763917;28;20040;-44
2022/04/16 23:25:38;;;;;;;1.65;0.90;;;10.00;94.80;;;;;;20765908;28;20388;-43
2022/04/16 23:35:41;;;;;;;3.05;0.88;;;9.90;93.50;;;;;;20764383;28;20465;-43
2022/04/16 23:56:09;;;;;;;2.78;1.27;;;9.70;94.60;;;;;;20763233;28;20034;-43
